Sign in

Advertise on goboko.com

You can reach many thousands of active pilots each month by advertising on goboko.com.

Please contact us for details.

Advertising

Info

Aviation weather - KVGT

METAR KVGT 180753Z 00000KT 10SM CLR 23/M06 A2981 RMK AO2 SLP088 T02331056 403220167

TAF KVGT 180520Z 1806/1906 20010KT P6SM BKN200 FM181200 15006KT P6SM BKN200 FM181800 16010G20KT P6SM BKN150 FM190100 19011KT P6SM BKN120

ADDS Experimental. Do not use for flight-related decisions.

Javascript required. Ce site nécessite javascript